Time;durP1;ratioP1;P1;durP2;ratioP2;P2;SDS_P1;SDS_P2;PMS_P1;PMS_P2;Temp;Humidity;BMP_temperature;BMP_pressure;BME280_temperature;BME280_humidity;BME280_pressure;Samples;Min_cycle;Max_cycle;Signal;HPM_P1;HPM_P2
2021/10/21 00:00:06;;;;;;;3.20;2.80;;;;;;;;;;5107154;28;20440;-72
2021/10/21 00:02:31;;;;;;;3.85;3.35;;;;;;;;;;5104517;28;20050;-72
2021/10/21 00:04:57;;;;;;;3.10;2.53;;;;;;;;;;5105874;28;20020;-72
2021/10/21 00:07:22;;;;;;;3.58;2.53;;;;;;;;;;5107536;28;20027;-72
2021/10/21 00:09:48;;;;;;;3.45;2.63;;;;;;;;;;5084564;28;20062;-70
2021/10/21 00:12:14;;;;;;;3.10;2.58;;;;;;;;;;5092069;28;20469;-71
2021/10/21 00:14:39;;;;;;;2.80;2.40;;;;;;;;;;5089035;28;20496;-71
2021/10/21 00:17:04;;;;;;;3.15;2.72;;;;;;;;;;5106939;28;20119;-71
2021/10/21 00:19:30;;;;;;;3.75;2.70;;;;;;;;;;5106099;28;20039;-70
2021/10/21 00:21:55;;;;;;;3.00;2.65;;;;;;;;;;5107609;28;20033;-70
2021/10/21 00:24:21;;;;;;;3.20;2.55;;;;;;;;;;5107011;28;20408;-70
2021/10/21 00:26:47;;;;;;;2.95;2.40;;;;;;;;;;5106004;28;20039;-72
2021/10/21 00:29:13;;;;;;;3.58;3.08;;;;;;;;;;5090906;28;20039;-71
2021/10/21 00:31:38;;;;;;;3.30;2.78;;;;;;;;;;5107199;28;20069;-72
2021/10/21 00:34:03;;;;;;;3.45;2.75;;;;;;;;;;5106291;28;20039;-70
2021/10/21 00:36:29;;;;;;;3.72;2.85;;;;;;;;;;5107858;28;20922;-71
2021/10/21 00:38:56;;;;;;;3.17;2.30;;;;;;;;;;5087479;28;20071;-69
2021/10/21 00:41:22;;;;;;;2.92;2.63;;;;;;;;;;5105471;28;20381;-69
2021/10/21 00:43:47;;;;;;;2.92;2.55;;;;;;;;;;5091736;28;20031;-70
2021/10/21 00:46:14;;;;;;;3.38;3.08;;;;;;;;;;5108446;28;20023;-70
2021/10/21 00:48:41;;;;;;;3.33;2.92;;;;;;;;;;5083666;28;20050;-71
2021/10/21 00:51:12;;;;;;;3.42;3.13;;;;;;;;;;5103500;28;20118;-70
2021/10/21 00:53:38;;;;;;;2.80;2.42;;;;;;;;;;5102548;28;20042;-70
2021/10/21 00:56:06;;;;;;;3.17;2.58;;;;;;;;;;5089734;28;20020;-70
2021/10/21 00:58:32;;;;;;;4.65;3.13;;;;;;;;;;5105597;28;20046;-69
2021/10/21 01:00:59;;;;;;;3.10;2.55;;;;;;;;;;5091847;28;20031;-69
2021/10/21 01:03:24;;;;;;;4.80;2.88;;;;;;;;;;5104445;28;20433;-69
2021/10/21 01:05:50;;;;;;;3.03;2.60;;;;;;;;;;5101531;28;20023;-70
2021/10/21 01:08:15;;;;;;;3.88;3.00;;;;;;;;;;5103468;28;20039;-69
2021/10/21 01:10:42;;;;;;;3.30;2.45;;;;;;;;;;5090270;28;20032;-69
2021/10/21 01:13:07;;;;;;;2.60;2.28;;;;;;;;;;5101732;28;20047;-68
2021/10/21 01:15:33;;;;;;;3.22;2.80;;;;;;;;;;5103074;28;20461;-69
2021/10/21 01:17:59;;;;;;;3.45;2.92;;;;;;;;;;5091730;28;20040;-69
2021/10/21 01:20:26;;;;;;;3.00;2.63;;;;;;;;;;5104197;28;20019;-69
2021/10/21 01:22:52;;;;;;;2.92;2.63;;;;;;;;;;5104608;28;20060;-68
2021/10/21 01:25:18;;;;;;;2.78;2.28;;;;;;;;;;5104935;28;20140;-69
2021/10/21 01:27:45;;;;;;;3.10;2.75;;;;;;;;;;5104373;28;20129;-69
2021/10/21 01:30:21;;;;;;;3.20;2.65;;;;;;;;;;5102932;28;20510;-68
2021/10/21 01:32:48;;;;;;;3.15;2.53;;;;;;;;;;5106167;28;20520;-69
2021/10/21 01:35:14;;;;;;;4.20;3.22;;;;;;;;;;5105689;28;20372;-69
2021/10/21 01:37:40;;;;;;;3.63;3.10;;;;;;;;;;5090447;28;20039;-70
2021/10/21 01:40:10;;;;;;;3.10;2.65;;;;;;;;;;5104136;28;20028;-69
2021/10/21 01:42:36;;;;;;;4.75;2.83;;;;;;;;;;5104724;28;20063;-70
2021/10/21 01:45:01;;;;;;;3.17;2.88;;;;;;;;;;5101421;28;20109;-70
2021/10/21 01:47:26;;;;;;;2.75;2.38;;;;;;;;;;5089111;28;20096;-70
2021/10/21 01:49:52;;;;;;;3.15;2.67;;;;;;;;;;5104730;28;20032;-68
2021/10/21 01:52:17;;;;;;;2.85;2.55;;;;;;;;;;5090613;28;20034;-70
2021/10/21 01:54:43;;;;;;;3.47;3.13;;;;;;;;;;5084625;28;20527;-72
2021/10/21 01:57:08;;;;;;;2.90;2.50;;;;;;;;;;5105945;28;20028;-72
2021/10/21 01:59:33;;;;;;;3.75;3.45;;;;;;;;;;5104534;28;20383;-75
2021/10/21 02:01:59;;;;;;;3.88;3.22;;;;;;;;;;5105532;28;20555;-74
2021/10/21 02:04:24;;;;;;;3.28;2.95;;;;;;;;;;5099214;28;20032;-74
2021/10/21 02:06:49;;;;;;;3.20;2.53;;;;;;;;;;5104245;28;20528;-74
2021/10/21 02:09:15;;;;;;;3.20;2.70;;;;;;;;;;5104396;28;20032;-74
2021/10/21 02:11:40;;;;;;;2.95;2.63;;;;;;;;;;5107026;28;20040;-74
2021/10/21 02:14:05;;;;;;;2.90;2.47;;;;;;;;;;5110219;28;20571;-72
2021/10/21 02:16:31;;;;;;;5.72;2.83;;;;;;;;;;5107750;28;20031;-73
2021/10/21 02:18:56;;;;;;;2.58;2.05;;;;;;;;;;5107458;28;20417;-72
2021/10/21 02:21:22;;;;;;;2.70;2.17;;;;;;;;;;5109851;28;20027;-73
2021/10/21 02:23:47;;;;;;;2.70;2.38;;;;;;;;;;5105720;28;20539;-74
2021/10/21 02:26:13;;;;;;;3.00;2.58;;;;;;;;;;5103037;28;20046;-73
2021/10/21 02:28:39;;;;;;;3.08;2.45;;;;;;;;;;5106397;28;20481;-71
2021/10/21 02:31:04;;;;;;;2.90;2.40;;;;;;;;;;5104878;28;20031;-71
2021/10/21 02:33:29;;;;;;;2.78;2.00;;;;;;;;;;5105249;28;20032;-70
2021/10/21 02:35:55;;;;;;;2.78;2.47;;;;;;;;;;5103857;28;20182;-72
2021/10/21 02:38:20;;;;;;;2.65;2.10;;;;;;;;;;5107679;28;20038;-71
2021/10/21 02:40:47;;;;;;;2.65;2.20;;;;;;;;;;5105465;28;20143;-70
2021/10/21 02:43:13;;;;;;;2.88;1.83;;;;;;;;;;5107122;28;20427;-71
2021/10/21 02:45:40;;;;;;;2.40;1.75;;;;;;;;;;5107344;28;20023;-70
2021/10/21 02:48:06;;;;;;;6.50;2.17;;;;;;;;;;5104310;28;20085;-72
2021/10/21 02:50:31;;;;;;;2.30;1.83;;;;;;;;;;5100373;28;20028;-71
2021/10/21 02:52:56;;;;;;;3.85;2.13;;;;;;;;;;5103603;28;20132;-70
2021/10/21 02:55:22;;;;;;;2.47;2.00;;;;;;;;;;5102557;28;20644;-72
2021/10/21 02:57:47;;;;;;;2.72;1.83;;;;;;;;;;5107245;28;20067;-72
2021/10/21 03:00:13;;;;;;;2.00;1.50;;;;;;;;;;5105890;28;20042;-70
2021/10/21 03:02:39;;;;;;;2.20;1.73;;;;;;;;;;5105424;28;20035;-72
2021/10/21 03:05:05;;;;;;;3.22;2.42;;;;;;;;;;5106694;28;20437;-71
2021/10/21 03:07:31;;;;;;;2.63;1.75;;;;;;;;;;5091670;28;20043;-71
2021/10/21 03:09:56;;;;;;;2.20;1.60;;;;;;;;;;5108213;28;20924;-70
2021/10/21 03:12:21;;;;;;;2.30;1.75;;;;;;;;;;5105513;28;20036;-70
2021/10/21 03:14:47;;;;;;;2.28;1.80;;;;;;;;;;5103024;28;20044;-71
2021/10/21 03:17:13;;;;;;;2.17;1.80;;;;;;;;;;5092648;28;20070;-71
2021/10/21 03:19:38;;;;;;;4.07;2.40;;;;;;;;;;5101979;28;20032;-72
2021/10/21 03:22:04;;;;;;;2.17;1.63;;;;;;;;;;5088134;28;20106;-71
2021/10/21 03:24:29;;;;;;;2.40;1.95;;;;;;;;;;5105577;28;20031;-70
2021/10/21 03:26:54;;;;;;;2.42;1.67;;;;;;;;;;5106543;28;20106;-70
2021/10/21 03:29:20;;;;;;;2.30;1.85;;;;;;;;;;5103343;28;20057;-69
2021/10/21 03:31:45;;;;;;;2.50;2.03;;;;;;;;;;5108347;28;20046;-70
2021/10/21 03:34:11;;;;;;;2.55;1.90;;;;;;;;;;5106508;28;20028;-69
2021/10/21 03:36:36;;;;;;;2.60;1.90;;;;;;;;;;5105100;28;20020;-70
2021/10/21 03:39:02;;;;;;;6.53;2.28;;;;;;;;;;5104270;28;20372;-70
2021/10/21 03:41:28;;;;;;;2.60;1.95;;;;;;;;;;5106135;28;20472;-69
2021/10/21 03:43:53;;;;;;;2.50;1.95;;;;;;;;;;5103562;28;20036;-70
2021/10/21 03:46:19;;;;;;;2.50;1.90;;;;;;;;;;5106043;28;20031;-69
2021/10/21 03:48:44;;;;;;;2.42;1.73;;;;;;;;;;5106739;28;20031;-70
2021/10/21 03:51:10;;;;;;;2.47;1.90;;;;;;;;;;5101481;28;20059;-70
2021/10/21 03:53:36;;;;;;;3.60;2.17;;;;;;;;;;5109056;28;20031;-69
2021/10/21 03:56:01;;;;;;;2.50;1.92;;;;;;;;;;5075881;28;20499;-69
2021/10/21 03:58:26;;;;;;;2.63;2.10;;;;;;;;;;5104184;28;20035;-70
2021/10/21 04:00:52;;;;;;;3.10;2.28;;;;;;;;;;5091274;28;20497;-70
2021/10/21 04:03:18;;;;;;;2.53;1.90;;;;;;;;;;5105861;28;20039;-69
2021/10/21 04:05:43;;;;;;;2.40;1.80;;;;;;;;;;5101372;28;20062;-69
2021/10/21 04:08:09;;;;;;;2.95;2.38;;;;;;;;;;5101903;28;20035;-69
2021/10/21 04:10:34;;;;;;;2.92;1.98;;;;;;;;;;5104522;28;20602;-70
2021/10/21 04:13:00;;;;;;;3.15;2.28;;;;;;;;;;5103602;28;20027;-68
2021/10/21 04:15:25;;;;;;;2.53;1.80;;;;;;;;;;5103662;28;20027;-68
2021/10/21 04:17:54;;;;;;;2.95;1.88;;;;;;;;;;5107049;28;20028;-69
2021/10/21 04:20:20;;;;;;;2.47;1.80;;;;;;;;;;5101377;28;20039;-67
2021/10/21 04:22:46;;;;;;;2.45;1.73;;;;;;;;;;5090230;28;20063;-67
2021/10/21 04:25:48;;;;;;;2.55;1.85;;;;;;;;;;5101931;28;20067;-68
2021/10/21 04:29:12;;;;;;;5.03;2.42;;;;;;;;;;5102688;28;20035;-70
2021/10/21 04:31:57;;;;;;;3.55;2.10;;;;;;;;;;5090264;28;20380;-68
2021/10/21 04:35:40;;;;;;;5.82;2.15;;;;;;;;;;5103067;28;20039;-68
2021/10/21 04:38:31;;;;;;;2.67;1.80;;;;;;;;;;5097127;28;20139;-69
2021/10/21 04:44:33;;;;;;;3.00;1.90;;;;;;;;;;5103919;28;20046;-70
2021/10/21 04:47:00;;;;;;;2.92;2.20;;;;;;;;;;5103577;28;20050;-69
2021/10/21 04:49:25;;;;;;;3.58;1.98;;;;;;;;;;5106631;28;20038;-67
2021/10/21 04:51:51;;;;;;;2.83;2.05;;;;;;;;;;5106587;28;20118;-70
2021/10/21 04:54:16;;;;;;;3.72;2.10;;;;;;;;;;5105602;28;20040;-70
2021/10/21 04:56:43;;;;;;;2.10;1.50;;;;;;;;;;5102927;27;20617;-69
2021/10/21 04:59:09;;;;;;;2.47;1.88;;;;;;;;;;5105051;28;20035;-69
2021/10/21 05:01:34;;;;;;;2.33;1.63;;;;;;;;;;5107877;27;20028;-68
2021/10/21 05:04:00;;;;;;;3.15;2.13;;;;;;;;;;5099886;27;20036;-69
2021/10/21 05:06:25;;;;;;;2.60;2.00;;;;;;;;;;5089349;27;20100;-70
2021/10/21 05:08:50;;;;;;;2.40;1.70;;;;;;;;;;5091833;28;20024;-69
2021/10/21 05:11:16;;;;;;;2.40;1.88;;;;;;;;;;5101684;27;20053;-68
2021/10/21 05:13:41;;;;;;;2.50;1.80;;;;;;;;;;5105934;27;20032;-69
2021/10/21 05:16:07;;;;;;;7.45;2.20;;;;;;;;;;5104421;28;20086;-67
2021/10/21 05:18:32;;;;;;;11.18;2.88;;;;;;;;;;5101455;28;20032;-69
2021/10/21 05:20:57;;;;;;;2.40;1.63;;;;;;;;;;5105989;28;20036;-67
2021/10/21 05:23:23;;;;;;;2.40;1.70;;;;;;;;;;5106912;28;20024;-67
2021/10/21 05:25:48;;;;;;;3.03;2.00;;;;;;;;;;5106058;28;20505;-67
2021/10/21 05:28:14;;;;;;;2.50;2.00;;;;;;;;;;5103772;28;20462;-67
2021/10/21 05:30:40;;;;;;;3.78;2.08;;;;;;;;;;5104610;28;20031;-68
2021/10/21 05:33:06;;;;;;;2.40;1.73;;;;;;;;;;5101869;28;20059;-70
2021/10/21 05:35:31;;;;;;;3.45;2.20;;;;;;;;;;5090851;28;20028;-68
2021/10/21 05:37:57;;;;;;;3.28;2.28;;;;;;;;;;5104207;28;20031;-67
2021/10/21 05:40:23;;;;;;;2.70;2.10;;;;;;;;;;5104840;28;20024;-69
2021/10/21 05:42:48;;;;;;;3.60;2.05;;;;;;;;;;5101963;28;20365;-70
2021/10/21 05:45:14;;;;;;;8.10;2.05;;;;;;;;;;5106348;28;20035;-65
2021/10/21 05:47:41;;;;;;;2.50;1.90;;;;;;;;;;5108195;28;20104;-67
2021/10/21 05:50:08;;;;;;;2.40;1.67;;;;;;;;;;5062175;28;20024;-67
2021/10/21 05:52:33;;;;;;;2.75;1.80;;;;;;;;;;5110387;27;20047;-68
2021/10/21 05:54:59;;;;;;;2.20;1.67;;;;;;;;;;5111231;28;20035;-67
2021/10/21 05:57:24;;;;;;;2.55;1.90;;;;;;;;;;5110844;28;20485;-67
2021/10/21 05:59:50;;;;;;;2.10;1.60;;;;;;;;;;5108197;28;20366;-66
2021/10/21 06:02:15;;;;;;;4.03;2.08;;;;;;;;;;5107043;28;20028;-67
2021/10/21 06:04:41;;;;;;;2.42;1.80;;;;;;;;;;5106806;28;20070;-66
2021/10/21 06:07:06;;;;;;;4.57;2.00;;;;;;;;;;5099680;28;20050;-67
2021/10/21 06:09:31;;;;;;;2.50;1.73;;;;;;;;;;5107512;28;20453;-68
2021/10/21 06:11:57;;;;;;;2.60;1.70;;;;;;;;;;5107428;28;20138;-70
2021/10/21 06:14:22;;;;;;;11.57;2.00;;;;;;;;;;5103073;28;20046;-69
2021/10/21 06:16:49;;;;;;;2.80;1.98;;;;;;;;;;5106580;28;20020;-69
2021/10/21 06:19:17;;;;;;;2.40;1.60;;;;;;;;;;5106404;28;20089;-67
2021/10/21 06:21:46;;;;;;;2.28;1.63;;;;;;;;;;5103247;28;20498;-65
2021/10/21 06:24:13;;;;;;;2.42;2.00;;;;;;;;;;5102672;28;20106;-68
2021/10/21 06:26:39;;;;;;;2.30;1.67;;;;;;;;;;5108094;28;20076;-67
2021/10/21 06:29:05;;;;;;;2.72;2.22;;;;;;;;;;5104188;28;20035;-66
2021/10/21 06:31:30;;;;;;;2.90;2.00;;;;;;;;;;5102506;28;20039;-66
2021/10/21 06:33:55;;;;;;;3.03;2.30;;;;;;;;;;5092273;28;20024;-66
2021/10/21 06:36:21;;;;;;;9.82;2.13;;;;;;;;;;5087449;28;20027;-66
2021/10/21 06:38:47;;;;;;;2.47;1.67;;;;;;;;;;5104302;28;20111;-67
2021/10/21 06:41:12;;;;;;;3.00;2.22;;;;;;;;;;5107172;28;20058;-67
2021/10/21 06:43:38;;;;;;;2.33;1.73;;;;;;;;;;5093572;28;20071;-66
2021/10/21 06:46:06;;;;;;;3.00;2.00;;;;;;;;;;5102942;28;20040;-66
2021/10/21 06:48:31;;;;;;;2.40;1.85;;;;;;;;;;5107076;28;20109;-69
2021/10/21 06:50:57;;;;;;;2.40;1.85;;;;;;;;;;5109176;28;20027;-72
2021/10/21 06:53:22;;;;;;;2.70;1.92;;;;;;;;;;5105692;28;20067;-69
2021/10/21 06:55:47;;;;;;;2.80;2.00;;;;;;;;;;5105213;28;20434;-68
2021/10/21 06:58:13;;;;;;;2.25;1.63;;;;;;;;;;5109580;28;20480;-72
2021/10/21 07:00:41;;;;;;;2.50;1.75;;;;;;;;;;5104652;28;20038;-69
2021/10/21 07:03:09;;;;;;;2.47;1.83;;;;;;;;;;5089744;28;20032;-67
2021/10/21 07:05:41;;;;;;;2.50;2.00;;;;;;;;;;5105782;28;20023;-68
2021/10/21 07:08:08;;;;;;;2.60;1.80;;;;;;;;;;5085834;28;20042;-68
2021/10/21 07:10:33;;;;;;;3.25;2.17;;;;;;;;;;5076062;28;20032;-67
2021/10/21 07:13:02;;;;;;;2.50;2.00;;;;;;;;;;5094081;28;20103;-70
2021/10/21 07:15:28;;;;;;;2.40;1.80;;;;;;;;;;5103327;28;20039;-71
2021/10/21 07:17:53;;;;;;;2.20;1.60;;;;;;;;;;5106579;28;20035;-68
2021/10/21 07:20:19;;;;;;;2.42;1.98;;;;;;;;;;5103208;28;20039;-73
2021/10/21 07:22:44;;;;;;;2.50;1.90;;;;;;;;;;5103599;28;20039;-69
2021/10/21 07:25:11;;;;;;;2.30;1.50;;;;;;;;;;5102897;27;20042;-69
2021/10/21 07:27:36;;;;;;;2.30;1.70;;;;;;;;;;5106562;27;20042;-70
2021/10/21 07:30:03;;;;;;;2.30;1.70;;;;;;;;;;5103835;28;20036;-68
2021/10/21 07:32:28;;;;;;;2.40;1.80;;;;;;;;;;5101711;28;20111;-70
2021/10/21 07:34:54;;;;;;;2.20;1.63;;;;;;;;;;5104265;27;20114;-67
2021/10/21 07:37:19;;;;;;;2.30;1.60;;;;;;;;;;5085236;28;20350;-69
2021/10/21 07:39:45;;;;;;;2.78;2.08;;;;;;;;;;5097348;28;20039;-68
2021/10/21 07:42:11;;;;;;;4.68;1.77;;;;;;;;;;5103821;27;20036;-68
2021/10/21 07:44:37;;;;;;;2.20;1.65;;;;;;;;;;5103053;28;20035;-68
2021/10/21 07:47:03;;;;;;;2.30;1.65;;;;;;;;;;5102722;28;20115;-68
2021/10/21 07:49:29;;;;;;;2.13;1.50;;;;;;;;;;5091142;28;20032;-69
2021/10/21 07:51:55;;;;;;;2.53;2.33;;;;;;;;;;5088192;28;20114;-69
2021/10/21 07:54:24;;;;;;;2.20;1.50;;;;;;;;;;5100800;28;20154;-69
2021/10/21 07:56:50;;;;;;;2.80;1.92;;;;;;;;;;5103820;27;20039;-70
2021/10/21 07:59:15;;;;;;;2.10;1.40;;;;;;;;;;5107832;27;20044;-69
2021/10/21 08:01:41;;;;;;;2.03;1.40;;;;;;;;;;5103328;28;20040;-70
2021/10/21 08:04:09;;;;;;;2.30;1.70;;;;;;;;;;5099474;28;20027;-71
2021/10/21 08:06:34;;;;;;;2.10;1.70;;;;;;;;;;5103821;28;20032;-68
2021/10/21 08:09:03;;;;;;;2.50;1.90;;;;;;;;;;5102279;28;20129;-71
2021/10/21 08:11:28;;;;;;;2.30;1.60;;;;;;;;;;5105512;28;20095;-69
2021/10/21 08:13:54;;;;;;;2.30;1.58;;;;;;;;;;5102844;28;20111;-69
2021/10/21 08:16:20;;;;;;;3.55;2.00;;;;;;;;;;5105789;28;20020;-71
2021/10/21 08:18:45;;;;;;;2.25;1.70;;;;;;;;;;5104285;28;20032;-69
2021/10/21 08:21:11;;;;;;;2.40;1.80;;;;;;;;;;5073654;28;20099;-69
2021/10/21 08:23:37;;;;;;;2.63;1.60;;;;;;;;;;5074223;28;20028;-71
2021/10/21 08:26:02;;;;;;;2.50;1.88;;;;;;;;;;5103287;28;20088;-68
2021/10/21 08:28:28;;;;;;;2.40;1.73;;;;;;;;;;5101860;28;20544;-68
2021/10/21 08:30:53;;;;;;;2.30;1.50;;;;;;;;;;5103459;28;20169;-72
2021/10/21 08:33:19;;;;;;;2.30;1.50;;;;;;;;;;5106007;28;20023;-68
2021/10/21 08:35:44;;;;;;;2.47;1.88;;;;;;;;;;5103166;28;20028;-69
2021/10/21 08:38:10;;;;;;;2.45;1.58;;;;;;;;;;5103691;27;20127;-69
2021/10/21 08:40:37;;;;;;;3.25;1.95;;;;;;;;;;5091741;28;20042;-68
2021/10/21 08:43:05;;;;;;;2.22;1.67;;;;;;;;;;5104605;27;20023;-69
2021/10/21 08:45:31;;;;;;;4.63;2.15;;;;;;;;;;5100931;28;20043;-69
2021/10/21 08:48:01;;;;;;;2.42;1.83;;;;;;;;;;5102460;28;20031;-68
2021/10/21 08:50:27;;;;;;;2.20;1.45;;;;;;;;;;5103355;28;20039;-67
2021/10/21 08:52:53;;;;;;;2.22;1.70;;;;;;;;;;5102073;28;20051;-68
2021/10/21 08:55:18;;;;;;;2.35;1.80;;;;;;;;;;5090172;28;20031;-68
2021/10/21 08:57:44;;;;;;;8.57;2.33;;;;;;;;;;5105751;28;20040;-68
2021/10/21 09:00:11;;;;;;;2.97;1.92;;;;;;;;;;5089079;28;20040;-69
2021/10/21 09:03:02;;;;;;;2.13;1.67;;;;;;;;;;5105378;28;20448;-68
2021/10/21 09:08:15;;;;;;;2.20;1.50;;;;;;;;;;5104272;28;20111;-68
2021/10/21 09:10:54;;;;;;;2.20;1.50;;;;;;;;;;5105692;28;20023;-71
2021/10/21 09:13:25;;;;;;;2.45;1.80;;;;;;;;;;5104519;28;20035;-68
2021/10/21 09:15:54;;;;;;;;;;;;;;;;;;5101208;28;20032;-69
2021/10/21 09:18:20;;;;;;;2.30;1.73;;;;;;;;;;5089485;28;19980;-69
2021/10/21 09:20:47;;;;;;;2.40;1.60;;;;;;;;;;5101949;28;20564;-68
2021/10/21 09:23:16;;;;;;;2.38;1.85;;;;;;;;;;5105486;28;20212;-69
2021/10/21 09:25:43;;;;;;;2.35;1.58;;;;;;;;;;5103957;28;20358;-68
2021/10/21 09:28:26;;;;;;;2.50;1.67;;;;;;;;;;5103253;28;20074;-69
2021/10/21 09:31:03;;;;;;;2.70;1.95;;;;;;;;;;5103386;28;20039;-68
2021/10/21 09:33:49;;;;;;;2.45;1.73;;;;;;;;;;5106292;28;20038;-68
2021/10/21 09:36:26;;;;;;;2.47;1.88;;;;;;;;;;5105055;28;20031;-71
2021/10/21 09:38:54;;;;;;;2.33;1.70;;;;;;;;;;5105557;28;20095;-68
2021/10/21 09:41:23;;;;;;;2.50;1.77;;;;;;;;;;5104987;28;20500;-68
2021/10/21 09:43:53;;;;;;;2.22;1.60;;;;;;;;;;5104831;28;20036;-68
2021/10/21 09:46:41;;;;;;;2.17;1.63;;;;;;;;;;5082357;28;20041;-67
2021/10/21 09:49:25;;;;;;;2.17;1.60;;;;;;;;;;5106069;28;20080;-68
2021/10/21 09:51:52;;;;;;;2.25;1.60;;;;;;;;;;5103080;28;20059;-68
2021/10/21 09:54:18;;;;;;;2.10;1.55;;;;;;;;;;5104847;28;20028;-68
2021/10/21 09:57:00;;;;;;;2.55;1.75;;;;;;;;;;5085640;28;20031;-69
2021/10/21 09:59:28;;;;;;;2.63;1.80;;;;;;;;;;5102640;28;20357;-68
2021/10/21 10:01:57;;;;;;;3.03;1.67;;;;;;;;;;5104959;28;20133;-68
2021/10/21 10:04:25;;;;;;;2.60;1.55;;;;;;;;;;5103856;28;20124;-69
2021/10/21 10:06:58;;;;;;;2.05;1.40;;;;;;;;;;5103334;28;20031;-69
2021/10/21 10:09:26;;;;;;;3.75;1.95;;;;;;;;;;5103167;28;20089;-69
2021/10/21 10:11:52;;;;;;;2.35;1.42;;;;;;;;;;5103981;28;20074;-69
2021/10/21 10:14:17;;;;;;;2.40;1.77;;;;;;;;;;5102535;28;20066;-69
2021/10/21 10:16:44;;;;;;;2.45;1.90;;;;;;;;;;5105518;28;20360;-69
2021/10/21 10:19:11;;;;;;;4.97;1.60;;;;;;;;;;5103396;28;20032;-68
2021/10/21 10:21:37;;;;;;;4.00;1.90;;;;;;;;;;5086782;28;20072;-68
2021/10/21 10:24:12;;;;;;;2.30;1.70;;;;;;;;;;5103541;28;20423;-67
2021/10/21 10:26:45;;;;;;;2.42;1.67;;;;;;;;;;5102711;28;20032;-68
2021/10/21 10:29:19;;;;;;;2.70;1.90;;;;;;;;;;5105205;28;20854;-67
2021/10/21 10:31:47;;;;;;;2.60;2.03;;;;;;;;;;5105362;27;20039;-68
2021/10/21 10:34:37;;;;;;;5.53;2.65;;;;;;;;;;5108748;27;20126;-68
2021/10/21 10:37:15;;;;;;;2.50;1.80;;;;;;;;;;5110064;27;20036;-68
2021/10/21 10:39:47;;;;;;;2.38;1.75;;;;;;;;;;5106235;28;20035;-66
2021/10/21 10:42:13;;;;;;;2.15;1.67;;;;;;;;;;5104976;28;20059;-67
2021/10/21 10:44:39;;;;;;;2.72;1.80;;;;;;;;;;5107131;27;20051;-66
2021/10/21 10:47:09;;;;;;;2.80;2.05;;;;;;;;;;5108206;27;20078;-67
2021/10/21 10:49:40;;;;;;;2.22;1.67;;;;;;;;;;5105659;27;20051;-67
2021/10/21 10:52:14;;;;;;;2.20;1.60;;;;;;;;;;5103975;28;20047;-67
2021/10/21 10:55:02;;;;;;;3.65;2.17;;;;;;;;;;5089653;28;20027;-67
2021/10/21 10:57:27;;;;;;;2.70;2.25;;;;;;;;;;5098990;28;20465;-67
2021/10/21 10:59:56;;;;;;;2.35;1.67;;;;;;;;;;5105871;27;20055;-66
2021/10/21 11:02:24;;;;;;;2.28;1.75;;;;;;;;;;5105010;27;20110;-68
2021/10/21 11:04:56;;;;;;;2.50;1.67;;;;;;;;;;5103974;27;20031;-68
2021/10/21 11:07:49;;;;;;;2.20;1.50;;;;;;;;;;5105197;27;20035;-68
2021/10/21 11:10:26;;;;;;;2.35;1.75;;;;;;;;;;5108114;27;20032;-67
2021/10/21 11:12:59;;;;;;;4.35;2.38;;;;;;;;;;5108662;28;20027;-67
2021/10/21 11:15:30;;;;;;;2.58;1.80;;;;;;;;;;5102383;27;20042;-67
2021/10/21 11:18:05;;;;;;;3.25;2.05;;;;;;;;;;5103559;27;20058;-67
2021/10/21 11:20:34;;;;;;;2.30;1.70;;;;;;;;;;5106046;27;20402;-65
2021/10/21 11:23:07;;;;;;;2.70;1.92;;;;;;;;;;5106717;27;20047;-67
2021/10/21 11:25:35;;;;;;;2.35;1.50;;;;;;;;;;5103408;27;20088;-68
2021/10/21 11:28:01;;;;;;;2.80;2.10;;;;;;;;;;5106770;27;20032;-67
2021/10/21 11:30:29;;;;;;;2.30;1.60;;;;;;;;;;5093427;28;20030;-66
2021/10/21 11:32:58;;;;;;;2.40;1.70;;;;;;;;;;5105980;27;20062;-67
2021/10/21 11:35:29;;;;;;;2.65;2.15;;;;;;;;;;5103629;27;20574;-67
2021/10/21 11:37:59;;;;;;;2.45;1.83;;;;;;;;;;5089616;27;20070;-66
2021/10/21 11:40:31;;;;;;;3.50;2.10;;;;;;;;;;5090591;27;20038;-66
2021/10/21 11:42:59;;;;;;;5.05;2.45;;;;;;;;;;5102119;28;20040;-68
2021/10/21 11:45:36;;;;;;;2.60;1.80;;;;;;;;;;5102734;28;20035;-69
2021/10/21 11:48:16;;;;;;;2.40;1.73;;;;;;;;;;5103314;28;20504;-68
2021/10/21 11:50:45;;;;;;;2.50;1.83;;;;;;;;;;5088513;28;20035;-68
2021/10/21 11:53:13;;;;;;;2.42;1.73;;;;;;;;;;5104055;28;20100;-66
2021/10/21 11:55:40;;;;;;;3.03;2.25;;;;;;;;;;5103440;28;20415;-67
2021/10/21 11:58:33;;;;;;;2.50;1.73;;;;;;;;;;5102720;27;20023;-66
2021/10/21 12:01:07;;;;;;;2.55;1.83;;;;;;;;;;5103196;27;20044;-66
2021/10/21 12:03:35;;;;;;;10.82;2.05;;;;;;;;;;5101972;27;20054;-66
2021/10/21 12:06:02;;;;;;;2.60;1.95;;;;;;;;;;5105772;27;20560;-67
2021/10/21 12:08:28;;;;;;;4.57;2.22;;;;;;;;;;5103646;28;20045;-68
2021/10/21 12:11:00;;;;;;;3.03;2.00;;;;;;;;;;5103264;27;20417;-67
2021/10/21 12:13:36;;;;;;;2.40;1.90;;;;;;;;;;5105765;27;20042;-67
2021/10/21 12:16:10;;;;;;;2.45;1.70;;;;;;;;;;5100146;27;20032;-67
2021/10/21 12:18:36;;;;;;;2.72;1.92;;;;;;;;;;5103029;28;20035;-68
2021/10/21 12:21:03;;;;;;;2.95;2.15;;;;;;;;;;5104992;27;20051;-66
2021/10/21 12:23:33;;;;;;;3.55;2.05;;;;;;;;;;5101502;28;20023;-68
2021/10/21 12:26:02;;;;;;;2.60;2.00;;;;;;;;;;5106272;27;20040;-67
2021/10/21 12:28:45;;;;;;;2.58;1.98;;;;;;;;;;5103355;28;20028;-68
2021/10/21 12:31:31;;;;;;;2.78;1.95;;;;;;;;;;5100991;28;20034;-66
2021/10/21 12:34:02;;;;;;;2.60;1.98;;;;;;;;;;5103989;28;20047;-66
2021/10/21 12:36:31;;;;;;;;;;;;;;;;;;5102647;28;20028;-66
2021/10/21 12:39:07;;;;;;;2.58;1.92;;;;;;;;;;5101974;28;19968;-67
2021/10/21 12:41:48;;;;;;;2.50;1.83;;;;;;;;;;5102499;28;20053;-67
2021/10/21 12:44:16;;;;;;;3.28;2.17;;;;;;;;;;5101815;28;20093;-66
2021/10/21 12:46:42;;;;;;;3.47;2.17;;;;;;;;;;5103302;28;20123;-65
2021/10/21 12:49:14;;;;;;;6.13;2.70;;;;;;;;;;5105112;28;20115;-67
2021/10/21 12:51:42;;;;;;;7.15;2.22;;;;;;;;;;5087107;28;20043;-66
2021/10/21 12:54:24;;;;;;;10.40;1.95;;;;;;;;;;5103878;28;20039;-67
2021/10/21 12:56:58;;;;;;;3.38;1.80;;;;;;;;;;5103342;28;20038;-66
2021/10/21 12:59:27;;;;;;;2.50;1.88;;;;;;;;;;5104969;28;20031;-66
2021/10/21 13:02:02;;;;;;;2.67;1.92;;;;;;;;;;5107333;28;20085;-65
2021/10/21 13:04:48;;;;;;;2.70;1.85;;;;;;;;;;5102979;28;20031;-66
2021/10/21 13:07:25;;;;;;;2.38;1.65;;;;;;;;;;5104489;28;20034;-67
2021/10/21 13:09:53;;;;;;;4.80;2.30;;;;;;;;;;5104303;28;20027;-66
2021/10/21 13:12:20;;;;;;;8.13;2.03;;;;;;;;;;5100677;27;20036;-66
2021/10/21 13:14:48;;;;;;;2.40;1.70;;;;;;;;;;5106924;28;20490;-66
2021/10/21 13:17:13;;;;;;;3.13;2.08;;;;;;;;;;5099404;28;20094;-66
2021/10/21 13:19:39;;;;;;;2.30;1.67;;;;;;;;;;5102186;28;20059;-65
2021/10/21 13:22:05;;;;;;;3.70;1.88;;;;;;;;;;5105439;28;20487;-65
2021/10/21 13:24:31;;;;;;;2.42;1.80;;;;;;;;;;5103986;28;20028;-68
2021/10/21 13:26:58;;;;;;;2.60;1.88;;;;;;;;;;5100107;28;20369;-67
2021/10/21 13:29:24;;;;;;;4.00;2.38;;;;;;;;;;5102448;28;20031;-66
2021/10/21 13:31:49;;;;;;;2.72;2.30;;;;;;;;;;5099088;28;20034;-68
2021/10/21 13:34:15;;;;;;;2.90;2.25;;;;;;;;;;5079713;28;20112;-67
2021/10/21 13:36:40;;;;;;;2.80;2.33;;;;;;;;;;5100156;28;20039;-66
2021/10/21 13:39:06;;;;;;;5.53;2.65;;;;;;;;;;5105781;28;20334;-65
2021/10/21 13:41:32;;;;;;;2.97;2.47;;;;;;;;;;5102050;28;20393;-68
2021/10/21 13:43:57;;;;;;;3.95;2.58;;;;;;;;;;5099078;28;20035;-67
2021/10/21 13:46:23;;;;;;;5.25;2.53;;;;;;;;;;5101525;28;20036;-67
2021/10/21 13:48:48;;;;;;;2.50;1.88;;;;;;;;;;5101458;28;20023;-66
2021/10/21 13:51:14;;;;;;;2.80;2.10;;;;;;;;;;5102733;28;20055;-66
2021/10/21 13:53:39;;;;;;;3.95;2.75;;;;;;;;;;5104337;28;20055;-66
2021/10/21 13:56:08;;;;;;;3.42;2.47;;;;;;;;;;5102757;28;20250;-66
2021/10/21 13:58:33;;;;;;;2.70;2.20;;;;;;;;;;5102055;28;20039;-68
2021/10/21 14:00:59;;;;;;;2.78;2.35;;;;;;;;;;5106685;28;20035;-66
2021/10/21 14:03:24;;;;;;;4.25;2.30;;;;;;;;;;5105203;28;20035;-65
2021/10/21 14:05:50;;;;;;;2.50;1.90;;;;;;;;;;5103338;28;20038;-66
2021/10/21 14:08:15;;;;;;;3.88;2.67;;;;;;;;;;5105421;28;20055;-66
2021/10/21 14:10:44;;;;;;;2.40;1.70;;;;;;;;;;5109358;28;20035;-67
2021/10/21 14:13:09;;;;;;;2.53;1.92;;;;;;;;;;5107288;28;20024;-67
2021/10/21 14:15:37;;;;;;;2.60;2.00;;;;;;;;;;5109737;28;20368;-67
2021/10/21 14:18:04;;;;;;;3.50;2.25;;;;;;;;;;5109122;28;20165;-67
2021/10/21 14:20:29;;;;;;;2.70;2.00;;;;;;;;;;5106860;28;20036;-66
2021/10/21 14:22:55;;;;;;;2.40;1.73;;;;;;;;;;5103504;28;20047;-66
2021/10/21 14:25:21;;;;;;;2.95;1.88;;;;;;;;;;5107206;28;20031;-66
2021/10/21 14:27:47;;;;;;;2.47;1.80;;;;;;;;;;5105651;28;20028;-65
2021/10/21 14:30:13;;;;;;;3.03;2.13;;;;;;;;;;5105541;28;20028;-67
2021/10/21 14:32:39;;;;;;;3.15;1.90;;;;;;;;;;5105651;28;20103;-66
2021/10/21 14:35:05;;;;;;;2.45;2.00;;;;;;;;;;5107487;28;20421;-66
2021/10/21 14:37:37;;;;;;;2.40;1.60;;;;;;;;;;5107975;28;20373;-65
2021/10/21 14:40:02;;;;;;;2.50;1.85;;;;;;;;;;5092963;28;20151;-66
2021/10/21 14:42:28;;;;;;;2.65;1.98;;;;;;;;;;5106635;28;20438;-66
2021/10/21 14:44:53;;;;;;;2.70;1.90;;;;;;;;;;5108928;28;20034;-66
2021/10/21 14:47:20;;;;;;;3.00;2.00;;;;;;;;;;5108208;28;20037;-66
2021/10/21 14:49:46;;;;;;;2.30;1.80;;;;;;;;;;5105245;28;20032;-66
2021/10/21 14:52:11;;;;;;;2.33;1.80;;;;;;;;;;5108477;28;20067;-66
2021/10/21 14:54:37;;;;;;;2.90;2.35;;;;;;;;;;5108065;28;20070;-67